ニース/コート・ダジュール の空港の天気 - METARとTAF

コート・ダジュール空港(ニース) ( LFMN / NCE ) - フランス ニース
飛行場実況気象(Metar)
観測時間02/28 01:30 CET (02/28 00:30 UTC)
風向・風速北西 4m/s
視程10km以上
天気現象弱い雨
全天の4割程度の雲 雲底高度 240m
全天の8割程度の雲 雲底高度 460m
気温11℃
湿度94%
気圧1012hPa
METARLFMN 280030Z 32007KT 9999 -RA SCT008 BKN015 11/10 Q1012 NOSIG
過去の天気等 Google飛行場航空写真 Wunderground天気予報

過去48時間のMETAR

飛行場予報(TAF)
発表時間: 2/27 22:01 CET (2/27 21:01 UTC)
予報対象時間: 27日22時 CET ~ 1日4時 CET
風向・風速西北西 3m/s
視程10km以上
全天の4割程度の雲 雲底高度 610m
全天の8割程度の雲 雲底高度 1,220m
27日22時 CET ~ 28日12時 CET に一時的に
視程4,000m
天気現象雨 もや
全天の8割程度の雲 雲底高度 430m
28日0時 CET ~ 28日2時 CET に徐々に
風向・風速南南西 8m/s
28日12時 CET ~ 28日14時 CET に徐々に
少しの雲 雲底高度 1,220m
全天の8割程度の雲 雲底高度 3,660m
28日17時 CET ~ 28日18時 CET に一時的に
天気現象しゅう雨
少しの塔状積雲 雲底高度 910m
全天の8割程度の雲 雲底高度 1,220m
28日18時 CET ~ 28日20時 CET に徐々に
風向・風速西南西 10m/s 瞬間風速 15m/s
なし
1日1時 CET ~ 1日4時 CET に一時的に
風向・風速北北西 8m/s
TAF AMD LFMN 272101Z 2721/0103 30005KT 9999 SCT020 BKN040
TEMPO 2721/2811 4000 RA BR BKN014
BECMG 2723/2801 20015KT
BECMG 2811/2813 FEW040 BKN120
TEMPO 2816/2817 SHRA FEW030TCU BKN040
BECMG 2817/2819 25020G30KT NSC
TEMPO 0100/0103 33015KT